Time;durP1;ratioP1;P1;durP2;ratioP2;P2;SDS_P1;SDS_P2;PMS_P1;PMS_P2;Temp;Humidity;BMP_temperature;BMP_pressure;BME280_temperature;BME280_humidity;BME280_pressure;Samples;Min_cycle;Max_cycle;Signal;HPM_P1;HPM_P2
2021/11/02 00:00:37;;;;;;;;;8.25;7.50;;;;;10.25;66.97;99594.31;4960283;28;45408;-64
2021/11/02 00:03:04;;;;;;;;;7.75;6.25;;;;;10.27;66.90;99591.66;4960430;28;45250;-64
2021/11/02 00:05:30;;;;;;;;;7.00;7.00;;;;;10.29;66.75;99584.59;4960419;28;46172;-64
2021/11/02 00:07:56;;;;;;;;;6.25;5.25;;;;;10.26;66.73;99577.66;4960254;28;45495;-64
2021/11/02 00:10:21;;;;;;;;;10.25;5.50;;;;;10.29;67.01;99585.47;4960512;28;45284;-64
2021/11/02 00:12:47;;;;;;;;;3.75;3.75;;;;;10.27;67.08;99573.28;4984003;28;45302;-64
2021/11/02 00:15:13;;;;;;;;;7.50;5.00;;;;;10.29;66.93;99584.59;4958976;28;46560;-64
2021/11/02 00:17:40;;;;;;;;;4.75;4.75;;;;;10.30;67.09;99586.31;4960345;28;45232;-64
2021/11/02 00:20:11;;;;;;;;;5.00;5.00;;;;;10.32;66.81;99584.50;4960569;28;45414;-64
2021/11/02 00:22:38;;;;;;;;;6.00;5.25;;;;;10.28;67.09;99575.88;4960079;28;45387;-64
2021/11/02 00:25:04;;;;;;;;;6.00;5.00;;;;;10.29;67.14;99572.34;4987605;28;47030;-64
2021/11/02 00:27:33;;;;;;;;;7.00;7.00;;;;;10.30;66.90;99562.69;4998194;27;45357;-64
2021/11/02 00:29:58;;;;;;;;;7.50;4.75;;;;;10.31;67.04;99570.50;4979637;28;45319;-64
2021/11/02 00:32:24;;;;;;;;;8.25;6.50;;;;;10.34;67.00;99566.91;4979607;28;45302;-64
2021/11/02 00:34:50;;;;;;;;;6.25;5.25;;;;;10.36;67.14;99565.16;4979534;28;45328;-64
2021/11/02 00:37:15;;;;;;;;;4.00;3.50;;;;;10.37;67.22;99572.97;4979438;28;45300;-64
2021/11/02 00:39:41;;;;;;;;;3.00;3.00;;;;;10.39;67.10;99571.16;4978431;28;45283;-64
2021/11/02 00:42:07;;;;;;;;;5.00;5.00;;;;;10.38;67.32;99571.22;4979099;28;45182;-64
2021/11/02 00:44:32;;;;;;;;;4.00;3.00;;;;;10.36;67.08;99559.88;4979484;28;45288;-64
2021/11/02 00:46:58;;;;;;;;;6.00;4.50;;;;;10.39;67.00;99568.53;4976187;28;45173;-64
2021/11/02 00:49:25;;;;;;;;;4.25;3.75;;;;;10.41;67.19;99563.22;4959555;28;45189;-64
2021/11/02 00:51:52;;;;;;;;;3.50;3.50;;;;;10.43;67.17;99561.41;4959746;28;45345;-64
2021/11/02 00:54:17;;;;;;;;;2.50;2.50;;;;;10.47;67.17;99559.56;4959694;28;46311;-64
2021/11/02 00:56:44;;;;;;;;;2.00;1.00;;;;;10.45;67.09;99556.97;4959332;28;45336;-64
2021/11/02 00:59:09;;;;;;;;;7.00;2.25;;;;;10.46;67.24;99549.94;4959688;28;45305;-64
2021/11/02 01:01:37;;;;;;;;;2.00;2.00;;;;;10.44;67.23;99544.75;4959492;28;45570;-64
2021/11/02 01:04:05;;;;;;;;;2.25;2.25;;;;;10.45;67.50;99543.81;4959954;28;45315;-64
2021/11/02 01:06:35;;;;;;;;;2.00;2.00;;;;;10.42;67.00;99532.59;4959466;28;45427;-64
2021/11/02 01:09:02;;;;;;;;;1.00;1.00;;;;;10.46;67.15;99539.44;4958419;28;45200;-63
2021/11/02 01:11:27;;;;;;;;;2.00;2.00;;;;;10.46;67.62;99528.94;4959335;28;45178;-64
2021/11/02 01:13:54;;;;;;;;;2.25;1.25;;;;;10.45;67.23;99521.97;4959220;28;45228;-64
2021/11/02 01:16:24;;;;;;;;;3.00;3.00;;;;;10.47;67.09;99526.25;4959533;28;45336;-64
2021/11/02 01:18:53;;;;;;;;;3.50;2.00;;;;;10.47;67.35;99525.41;4959683;28;45237;-63
2021/11/02 01:21:19;;;;;;;;;6.25;2.50;;;;;10.43;67.47;99518.53;4958039;28;45500;-64
2021/11/02 01:23:45;;;;;;;;;4.50;3.25;;;;;10.44;67.35;99521.13;4958172;28;46278;-63
2021/11/02 01:26:10;;;;;;;;;3.00;1.50;;;;;10.41;67.53;99523.81;5012453;28;45428;-63
2021/11/02 01:28:35;;;;;;;;;3.00;3.00;;;;;10.43;67.26;99524.66;4959418;28;45308;-62
2021/11/02 01:31:01;;;;;;;;;3.00;1.75;;;;;10.40;67.47;99522.09;4958018;28;45545;-63
2021/11/02 01:33:26;;;;;;;;;2.00;1.00;;;;;10.37;67.41;99517.81;4959490;28;46021;-63
2021/11/02 01:35:51;;;;;;;;;0.00;0.00;;;;;10.40;67.54;99522.09;4959289;28;45424;-62
2021/11/02 01:38:20;;;;;;;;;3.00;3.00;;;;;10.40;67.58;99530.88;4959735;28;45645;-63
2021/11/02 01:40:47;;;;;;;;;2.00;2.00;;;;;10.40;67.54;99519.47;4959278;28;45508;-63
2021/11/02 01:43:14;;;;;;;;;3.00;3.00;;;;;10.37;67.62;99520.44;4966352;28;46319;-63
2021/11/02 01:45:40;;;;;;;;;2.00;1.00;;;;;10.37;67.41;99524.84;4977527;28;45335;-63
2021/11/02 01:48:06;;;;;;;;;1.00;1.00;;;;;10.37;67.53;99525.69;4966989;28;45346;-62
2021/11/02 01:50:33;;;;;;;;;4.50;3.00;;;;;10.36;67.44;99528.38;4959071;28;45346;-63
2021/11/02 01:52:59;;;;;;;;;3.00;2.00;;;;;10.35;67.57;99526.63;4957838;28;48567;-63
2021/11/02 01:55:26;;;;;;;;;3.00;3.00;;;;;10.34;67.65;99525.78;4958907;28;45280;-65
2021/11/02 01:57:52;;;;;;;;;3.50;3.00;;;;;10.34;67.48;99523.16;4958968;28;45308;-63
2021/11/02 02:00:19;;;;;;;;;2.00;2.00;;;;;10.33;67.67;99523.22;4957005;28;45263;-63
2021/11/02 02:02:50;;;;;;;;;4.25;4.25;;;;;10.33;67.17;99525.84;4958286;28;46766;-63
2021/11/02 02:05:36;;;;;;;;;3.75;2.00;;;;;10.30;67.60;99521.53;4965990;28;45409;-63
2021/11/02 02:08:14;;;;;;;;;3.75;3.25;;;;;10.31;67.49;99530.25;4978425;28;45290;-63
2021/11/02 02:11:04;;;;;;;;;4.00;3.00;;;;;10.30;67.57;99532.03;4978493;28;45414;-63
2021/11/02 02:13:44;;;;;;;;;2.00;2.00;;;;;10.26;67.74;99522.53;4977966;28;46146;-63
2021/11/02 02:16:19;;;;;;;;;2.25;2.25;;;;;10.27;67.47;99534.75;4976901;28;45393;-63
2021/11/02 02:18:54;;;;;;;;;3.50;3.00;;;;;10.25;67.62;99526.06;4978513;28;45298;-63
2021/11/02 02:21:36;;;;;;;;;5.00;2.00;;;;;10.27;67.65;99532.13;4976817;28;45737;-62
2021/11/02 02:24:36;;;;;;;;;2.00;2.00;;;;;10.28;67.49;99533.00;4978117;28;46703;-62
2021/11/02 02:27:26;;;;;;;;;4.25;2.25;;;;;10.27;67.56;99526.03;4957399;28;45331;-63
2021/11/02 02:29:53;;;;;;;;;3.00;2.00;;;;;10.27;67.74;99518.16;4978378;28;45281;-62
2021/11/02 02:32:22;;;;;;;;;3.00;2.25;;;;;10.29;67.52;99519.81;4977902;28;45489;-62
2021/11/02 02:34:52;;;;;;;;;4.00;3.00;;;;;10.32;67.63;99526.72;4976717;28;47375;-62
2021/11/02 02:37:22;;;;;;;;;2.75;2.75;;;;;10.33;67.69;99531.94;4977920;27;45478;-62
2021/11/02 02:39:49;;;;;;;;;4.25;4.00;;;;;10.32;67.74;99524.09;4978165;28;45269;-63
2021/11/02 02:42:18;;;;;;;;;0.50;0.50;;;;;10.33;67.81;99526.69;4977530;28;45319;-63
2021/11/02 02:44:46;;;;;;;;;3.00;3.00;;;;;10.37;67.65;99520.44;4977780;28;46268;-63
2021/11/02 02:47:14;;;;;;;;;4.00;4.00;;;;;10.37;67.81;99528.31;4972839;28;45362;-63
2021/11/02 02:49:41;;;;;;;;;6.00;4.00;;;;;10.37;67.73;99523.06;4958579;28;45243;-62
2021/11/02 02:52:07;;;;;;;;;5.75;3.25;;;;;10.41;67.67;99521.19;4972080;28;45211;-62
2021/11/02 02:54:34;;;;;;;;;3.00;3.00;;;;;10.43;67.73;99519.41;4957302;28;45227;-62
2021/11/02 02:57:01;;;;;;;;;3.00;3.00;;;;;10.44;67.66;99515.00;4976419;28;45413;-62
2021/11/02 02:59:27;;;;;;;;;3.25;3.25;;;;;10.47;67.78;99514.91;4977765;28;45489;-62
2021/11/02 03:01:53;;;;;;;;;4.25;3.00;;;;;10.47;67.66;99513.13;4977690;28;45405;-62
2021/11/02 03:04:25;;;;;;;;;4.50;4.50;;;;;10.46;67.77;99507.94;4977462;28;46081;-63
2021/11/02 03:06:53;;;;;;;;;2.50;2.50;;;;;10.50;67.82;99512.16;4977525;28;45260;-62
2021/11/02 03:09:19;;;;;;;;;4.00;3.25;;;;;10.50;67.94;99513.03;4975666;28;45265;-62
2021/11/02 03:11:45;;;;;;;;;5.50;2.75;;;;;10.51;67.75;99508.63;4976915;28;45247;-62
2021/11/02 03:14:18;;;;;;;;;2.25;2.25;;;;;10.55;67.73;99511.13;4977377;28;45276;-63
2021/11/02 03:55:58;;;;;;;;;5.50;3.75;;;;;10.71;67.79;99508.78;4976999;28;45325;-62
2021/11/02 03:58:41;;;;;;;;;3.25;2.00;;;;;10.72;67.68;99510.53;4975113;28;47162;-62
2021/11/02 04:01:37;;;;;;;;;3.50;3.50;;;;;10.71;67.75;99511.44;4976673;28;45283;-63
2021/11/02 04:26:56;;;;;;;;;4.50;3.50;;;;;10.62;68.20;99524.88;5018106;28;45462;-62
2021/11/02 04:43:05;;;;;;;;;3.50;2.50;;;;;10.64;67.92;99524.81;4979048;28;45469;-62
2021/11/02 05:58:55;;;;;;;;;2.00;2.00;;;;;10.56;68.01;99541.72;4975024;28;46117;-63
2021/11/02 06:28:50;;;;;;;;;2.75;2.00;;;;;10.27;68.44;99547.03;4958553;28;45212;-62
2021/11/02 06:31:30;;;;;;;;;3.50;2.25;;;;;10.27;68.88;99554.91;4958364;28;46432;-63
2021/11/02 07:15:54;;;;;;;;;0.50;0.50;;;;;10.12;68.06;99587.75;4957927;28;45710;-63
2021/11/02 07:18:28;;;;;;;;;3.00;1.50;;;;;10.14;68.07;99591.16;4965034;28;45395;-63
2021/11/02 07:21:05;;;;;;;;;1.50;1.25;;;;;10.13;68.34;99594.72;4977404;28;45236;-63
2021/11/02 08:47:06;;;;;;;;;2.00;2.00;;;;;10.75;67.87;99676.88;4959581;28;45343;-62
2021/11/02 08:49:35;;;;;;;;;1.50;1.50;;;;;10.78;67.53;99664.50;4969401;28;45351;-62
2021/11/02 08:52:03;;;;;;;;;3.00;2.25;;;;;10.80;67.36;99667.94;4979010;28;46209;-62
2021/11/02 08:54:29;;;;;;;;;5.00;4.00;;;;;10.85;67.29;99673.03;4979161;28;46139;-62
2021/11/02 08:56:55;;;;;;;;;2.00;2.00;;;;;10.92;67.48;99677.19;4977501;28;45265;-62
2021/11/02 08:59:21;;;;;;;;;2.00;2.00;;;;;10.95;67.23;99676.25;4979190;28;45169;-62
2021/11/02 09:01:57;;;;;;;;;1.00;1.00;;;;;10.94;67.08;99678.00;4979211;28;45315;-63
2021/11/02 09:04:32;;;;;;;;;2.00;2.00;;;;;11.01;67.03;99681.31;4979012;28;46307;-62
2021/11/02 09:07:03;;;;;;;;;1.50;1.50;;;;;11.01;67.13;99684.78;4979062;28;45178;-62
2021/11/02 09:09:40;;;;;;;;;4.00;1.50;;;;;11.08;66.94;99688.09;4977760;28;45305;-62
2021/11/02 09:12:06;;;;;;;;;3.75;2.25;;;;;11.08;66.96;99690.72;4978813;28;45255;-62
2021/11/02 09:14:37;;;;;;;;;1.50;1.50;;;;;11.13;66.68;99693.16;4978882;28;46214;-62
2021/11/02 09:17:05;;;;;;;;;2.25;1.50;;;;;11.09;66.71;99687.16;4978925;28;45334;-63
2021/11/02 09:19:32;;;;;;;;;1.75;1.00;;;;;11.15;66.55;99691.34;4977884;28;45209;-62
2021/11/02 09:21:59;;;;;;;;;1.00;1.00;;;;;11.21;66.52;99686.75;4978980;28;45416;-62
2021/11/02 09:24:24;;;;;;;;;1.00;1.00;;;;;11.23;66.57;99681.44;4978764;28;45468;-62
2021/11/02 09:26:50;;;;;;;;;2.25;1.75;;;;;11.24;66.48;99683.16;5006894;28;45421;-62
2021/11/02 09:29:18;;;;;;;;;2.00;2.00;;;;;11.27;66.41;99688.31;4959303;28;45350;-62
2021/11/02 09:31:45;;;;;;;;;1.75;1.75;;;;;11.32;66.37;99677.63;4959450;28;45300;-63
2021/11/02 09:34:11;;;;;;;;;1.00;1.00;;;;;11.40;66.35;99693.16;4959012;28;47153;-62
2021/11/02 09:36:41;;;;;;;;;2.00;1.00;;;;;11.51;66.25;99680.50;4959257;28;45335;-62
2021/11/02 09:39:10;;;;;;;;;4.50;2.00;;;;;11.55;66.42;99684.75;4959183;28;45344;-63
2021/11/02 09:42:00;;;;;;;;;1.50;1.50;;;;;11.68;66.39;99685.16;4959062;28;45233;-63
2021/11/02 09:44:46;;;;;;;;;4.00;1.75;;;;;11.79;66.12;99695.31;4968366;28;45464;-63
2021/11/02 09:47:33;;;;;;;;;1.50;1.50;;;;;11.87;65.95;99690.63;4973642;28;45415;-63
2021/11/02 09:50:14;;;;;;;;;1.00;1.00;;;;;11.93;65.85;99690.41;4959238;28;45415;-63
2021/11/02 09:52:48;;;;;;;;;3.25;1.00;;;;;11.96;66.19;99687.69;4958990;28;45225;-63
2021/11/02 09:55:35;;;;;;;;;3.00;2.00;;;;;12.00;65.77;99686.66;4958807;28;45309;-63
2021/11/02 09:58:17;;;;;;;;;2.00;2.00;;;;;12.00;65.39;99694.56;4958641;28;45339;-63
2021/11/02 10:00:56;;;;;;;;;2.00;2.00;;;;;12.02;65.32;99690.09;4958860;28;45288;-63
2021/11/02 10:03:55;;;;;;;;;2.25;1.00;;;;;12.05;65.20;99697.03;4957466;28;45378;-63
2021/11/02 10:06:31;;;;;;;;;2.75;1.75;;;;;12.15;65.50;99692.25;4958849;28;45267;-63
2021/11/02 10:08:57;;;;;;;;;2.25;2.25;;;;;12.18;65.37;99700.06;4958898;28;45241;-63
2021/11/02 10:11:54;;;;;;;;;2.00;2.00;;;;;12.24;65.13;99699.84;4958522;28;45258;-63
2021/11/02 10:14:40;;;;;;;;;2.75;2.25;;;;;12.30;65.20;99698.72;4967976;28;45253;-63
2021/11/02 10:17:32;;;;;;;;;2.00;2.00;;;;;12.34;65.36;99703.00;4958753;28;46372;-63
2021/11/02 10:20:04;;;;;;;;;3.00;3.00;;;;;12.40;65.21;99709.78;4976903;28;45295;-63
2021/11/02 10:22:35;;;;;;;;;2.00;2.00;;;;;12.48;65.26;99697.19;4957529;28;45298;-63
2021/11/02 10:25:15;;;;;;;;;1.25;1.25;;;;;12.58;65.11;99708.19;4984574;28;46170;-63
2021/11/02 10:27:52;;;;;;;;;2.00;2.00;;;;;12.70;65.01;99714.78;4976764;27;46187;-63
2021/11/02 10:30:23;;;;;;;;;1.00;1.00;;;;;12.80;64.86;99719.66;4958880;28;45262;-64
2021/11/02 10:32:49;;;;;;;;;1.00;1.00;;;;;12.92;64.60;99726.19;4957191;28;45490;-64
2021/11/02 10:35:27;;;;;;;;;2.75;2.75;;;;;13.06;64.71;99727.44;4958527;28;45405;-63
2021/11/02 10:38:06;;;;;;;;;4.00;4.00;;;;;13.18;64.70;99719.00;4965979;28;46467;-62
2021/11/02 10:40:45;;;;;;;;;2.25;2.00;;;;;13.28;64.51;99727.41;4977881;28;45268;-62
2021/11/02 10:43:39;;;;;;;;;2.00;1.00;;;;;13.30;64.23;99726.41;4977771;28;45191;-63
2021/11/02 10:46:11;;;;;;;;;1.00;0.75;;;;;13.37;64.29;99728.78;4977927;28;45513;-63
2021/11/02 10:48:43;;;;;;;;;0.00;0.00;;;;;13.36;63.93;99719.16;4961546;28;46157;-63
2021/11/02 10:51:22;;;;;;;;;0.50;0.50;;;;;13.41;63.55;99725.13;4958326;28;45256;-63
2021/11/02 10:54:16;;;;;;;;;2.00;1.00;;;;;13.43;63.90;99718.00;4958380;28;45376;-63
2021/11/02 10:57:12;;;;;;;;;1.00;1.00;;;;;13.42;63.63;99729.47;4957756;28;45566;-63
2021/11/02 10:59:41;;;;;;;;;2.00;1.00;;;;;13.43;63.32;99725.94;4958096;28;45462;-64
2021/11/02 11:02:26;;;;;;;;;2.25;2.25;;;;;13.37;63.36;99712.97;4958508;28;45244;-64
2021/11/02 11:04:54;;;;;;;;;1.75;1.25;;;;;13.37;63.45;99705.03;4972614;28;45342;-63
2021/11/02 11:07:21;;;;;;;;;3.00;2.00;;;;;13.42;62.96;99711.00;4976340;28;45539;-64
2021/11/02 11:09:47;;;;;;;;;1.75;0.25;;;;;13.41;63.47;99704.88;4977617;28;47104;-63
2021/11/02 11:12:14;;;;;;;;;2.75;2.75;;;;;13.48;63.00;99709.00;4977116;28;45332;-63
2021/11/02 11:14:45;;;;;;;;;3.00;3.00;;;;;13.55;62.95;99714.00;4977365;28;45247;-63
2021/11/02 11:17:14;;;;;;;;;2.00;1.50;;;;;13.64;62.84;99716.25;4977598;28;45402;-63
2021/11/02 11:19:49;;;;;;;;;0.00;0.00;;;;;13.72;63.02;99714.13;4977202;27;45351;-63
2021/11/02 11:22:23;;;;;;;;;2.00;2.00;;;;;13.84;63.16;99706.59;4977262;28;45370;-63
2021/11/02 11:24:55;;;;;;;;;1.00;1.00;;;;;13.96;63.34;99711.31;4990867;28;45567;-64
2021/11/02 11:27:22;;;;;;;;;1.75;1.75;;;;;14.07;62.53;99706.41;4986424;27;45791;-64
2021/11/02 11:29:54;;;;;;;;;2.75;1.50;;;;;14.12;62.35;99714.13;4957944;28;46408;-64
2021/11/02 11:32:19;;;;;;;;;1.00;1.00;;;;;14.19;62.28;99710.31;4957587;28;45314;-64
2021/11/02 11:34:50;;;;;;;;;3.00;3.00;;;;;14.24;62.78;99702.16;4960339;28;45455;-64
2021/11/02 11:37:27;;;;;;;;;4.00;2.00;;;;;14.29;62.45;99698.38;4960707;28;45225;-64
2021/11/02 11:39:59;;;;;;;;;4.25;2.75;;;;;14.21;62.21;99697.00;4960655;28;45330;-64
2021/11/02 11:42:29;;;;;;;;;1.00;1.00;;;;;14.30;62.58;99691.28;4960220;28;45202;-64
2021/11/02 11:45:04;;;;;;;;;1.50;1.25;;;;;14.30;62.33;99694.81;4960730;28;45487;-63
2021/11/02 11:47:30;;;;;;;;;1.00;1.00;;;;;14.28;61.94;99698.44;4960528;28;45289;-64
2021/11/02 11:49:56;;;;;;;;;2.00;1.00;;;;;14.21;62.15;99695.22;4960346;28;46808;-64
2021/11/02 11:52:25;;;;;;;;;1.00;1.00;;;;;14.21;61.70;99691.72;4960373;28;45393;-64
2021/11/02 11:54:56;;;;;;;;;2.00;2.00;;;;;14.18;62.11;99681.31;4960718;28;45225;-65
2021/11/02 11:57:33;;;;;;;;;1.75;1.75;;;;;14.22;62.00;99690.81;4960101;28;45517;-65
2021/11/02 12:00:02;;;;;;;;;2.00;2.00;;;;;14.29;61.46;99686.97;4960084;28;47117;-64
2021/11/02 12:02:36;;;;;;;;;3.00;2.00;;;;;14.38;61.40;99675.09;4960428;28;45248;-64
2021/11/02 12:05:17;;;;;;;;;3.00;3.00;;;;;14.46;61.52;99673.81;4960421;28;45389;-64
2021/11/02 12:08:03;;;;;;;;;3.75;3.25;;;;;14.57;61.32;99675.94;4960251;28;45394;-65
2021/11/02 12:10:29;;;;;;;;;2.00;1.00;;;;;14.69;61.14;99671.88;4960199;28;47294;-64
2021/11/02 12:12:55;;;;;;;;;2.00;2.00;;;;;14.79;61.47;99672.28;4959658;28;45391;-64
2021/11/02 12:15:22;;;;;;;;;1.50;1.50;;;;;14.87;61.29;99662.19;4960416;28;45344;-64
2021/11/02 12:17:51;;;;;;;;;2.00;2.00;;;;;14.97;61.43;99664.38;4960065;28;45175;-64
2021/11/02 12:20:18;;;;;;;;;0.50;0.50;;;;;15.03;61.12;99657.00;4960036;28;45710;-64
2021/11/02 12:23:00;;;;;;;;;0.50;0.50;;;;;15.06;60.95;99664.78;4959982;28;45344;-64
2021/11/02 12:25:33;;;;;;;;;0.00;0.00;;;;;15.12;60.66;99653.03;5005637;28;45486;-64
2021/11/02 12:27:59;;;;;;;;;0.50;0.50;;;;;15.14;60.34;99659.09;4959751;28;45488;-64
2021/11/02 12:30:27;;;;;;;;;0.00;0.00;;;;;15.19;60.24;99656.22;4960084;28;45484;-64
2021/11/02 12:32:57;;;;;;;;;0.00;0.00;;;;;15.26;60.57;99655.00;4958828;28;45327;-64
2021/11/02 12:35:34;;;;;;;;;1.00;1.00;;;;;15.31;60.75;99650.31;4960022;28;45254;-64
2021/11/02 12:38:03;;;;;;;;;1.50;1.50;;;;;15.42;60.38;99650.63;4960148;28;45283;-64
2021/11/02 12:40:34;;;;;;;;;0.33;0.33;;;;;15.41;60.65;99645.41;4959862;28;45399;-64
2021/11/02 12:43:00;;;;;;;;;5.75;5.75;;;;;15.44;60.21;99635.53;4959590;28;45295;-64
2021/11/02 12:45:28;;;;;;;;;2.50;1.25;;;;;15.59;59.97;99638.28;4959031;28;45284;-64
2021/11/02 12:47:59;;;;;;;;;0.25;0.25;;;;;15.66;59.89;99646.75;4965871;28;45420;-64
2021/11/02 12:50:28;;;;;;;;;1.75;0.50;;;;;15.70;59.73;99629.78;4959513;28;46348;-64
2021/11/02 12:52:56;;;;;;;;;0.50;0.50;;;;;15.80;59.49;99632.78;4959831;28;47209;-64
2021/11/02 12:55:24;;;;;;;;;0.25;0.25;;;;;15.93;59.40;99632.06;4973965;28;45370;-65
2021/11/02 12:57:53;;;;;;;;;0.50;0.50;;;;;15.98;59.88;99636.28;4971931;28;45486;-64
2021/11/02 13:00:28;;;;;;;;;1.00;1.00;;;;;15.98;59.07;99625.69;4978828;28;48097;-65
2021/11/02 13:02:56;;;;;;;;;2.25;0.00;;;;;16.07;59.13;99623.41;4979105;28;45321;-64
2021/11/02 13:05:23;;;;;;;;;0.00;0.00;;;;;16.12;58.61;99636.38;4979299;28;45413;-64
2021/11/02 13:08:15;;;;;;;;;1.00;1.00;;;;;16.19;58.85;99634.25;4977692;28;45477;-64
2021/11/02 13:10:41;;;;;;;;;0.50;0.50;;;;;16.27;58.62;99633.81;4966157;28;46274;-64
2021/11/02 13:13:13;;;;;;;;;1.00;1.00;;;;;16.29;58.32;99634.56;4977204;28;45165;-65
2021/11/02 13:15:53;;;;;;;;;0.00;0.00;;;;;16.35;58.07;99619.22;4978029;27;45434;-65
2021/11/02 13:18:35;;;;;;;;;0.00;0.00;;;;;16.44;58.28;99624.91;4977834;28;45631;-65
2021/11/02 13:21:29;;;;;;;;;0.00;0.00;;;;;16.51;58.33;99619.19;4978817;28;46099;-64
2021/11/02 13:24:11;;;;;;;;;1.00;1.00;;;;;16.55;58.19;99607.47;4978644;28;45268;-65
2021/11/02 13:26:44;;;;;;;;;3.00;1.00;;;;;16.64;58.11;99610.53;5009118;28;45415;-65
2021/11/02 13:29:14;;;;;;;;;1.00;1.00;;;;;16.65;58.05;99604.28;4975865;28;45300;-64
2021/11/02 13:31:42;;;;;;;;;1.00;1.00;;;;;16.63;58.01;99615.00;4978822;28;45309;-64
2021/11/02 13:34:10;;;;;;;;;2.00;2.00;;;;;16.59;57.73;99613.47;4978672;28;45375;-65
2021/11/02 13:36:36;;;;;;;;;2.00;1.33;;;;;16.54;57.37;99611.06;4977604;27;45422;-65
2021/11/02 13:39:05;;;;;;;;;2.00;1.25;;;;;16.45;57.60;99616.88;4978627;28;45399;-65
2021/11/02 13:41:38;;;;;;;;;1.00;1.00;;;;;16.44;57.29;99615.19;4977274;28;46918;-65
2021/11/02 13:44:06;;;;;;;;;2.00;0.00;;;;;16.45;57.34;99605.41;4978515;28;45314;-65
2021/11/02 13:46:39;;;;;;;;;0.33;0.33;;;;;16.43;57.43;99594.91;4978878;28;45399;-65
2021/11/02 13:49:07;;;;;;;;;0.00;0.00;;;;;16.44;57.41;99599.28;4961243;28;45434;-64
2021/11/02 13:51:33;;;;;;;;;1.00;1.00;;;;;16.46;57.64;99596.53;4972799;28;46918;-64
2021/11/02 13:54:00;;;;;;;;;1.00;1.00;;;;;16.52;57.39;99596.19;4978519;28;45206;-65
2021/11/02 13:56:37;;;;;;;;;2.33;2.00;;;;;16.53;57.56;99601.38;4978183;28;45469;-65
2021/11/02 13:59:07;;;;;;;;;0.00;0.00;;;;;16.56;57.20;99595.06;4978367;28;45345;-65
2021/11/02 14:01:45;;;;;;;;;1.00;1.00;;;;;16.56;57.24;99592.41;4978250;28;45282;-65
2021/11/02 14:04:33;;;;;;;;;2.00;1.00;;;;;16.55;57.23;99596.88;4978581;28;45339;-65
2021/11/02 14:07:07;;;;;;;;;0.00;0.00;;;;;16.52;57.14;99599.69;4978483;28;45424;-65
2021/11/02 14:09:36;;;;;;;;;1.00;1.00;;;;;16.54;57.10;99600.47;4978061;27;45516;-65
2021/11/02 14:12:19;;;;;;;;;0.50;0.00;;;;;16.52;57.05;99591.72;4977731;28;46238;-65
2021/11/02 14:14:45;;;;;;;;;1.00;1.00;;;;;16.47;57.25;99598.25;4978022;28;45261;-65
2021/11/02 14:17:19;;;;;;;;;0.67;0.67;;;;;16.44;57.22;99587.78;4978449;28;45166;-65
2021/11/02 14:19:51;;;;;;;;;0.67;0.67;;;;;16.38;57.32;99579.25;4978224;28;45319;-65
2021/11/02 14:22:55;;;;;;;;;1.00;1.00;;;;;16.32;57.35;99587.56;4978024;28;48631;-65
2021/11/02 14:25:22;;;;;;;;;1.33;0.00;;;;;16.25;57.20;99589.69;5013769;28;45407;-65
2021/11/02 14:27:50;;;;;;;;;1.25;1.00;;;;;16.24;57.53;99595.09;4981598;28;45524;-65
2021/11/02 14:30:30;;;;;;;;;0.75;0.75;;;;;16.22;57.64;99607.56;4978250;28;45462;-65
2021/11/02 14:32:57;;;;;;;;;1.00;1.00;;;;;16.20;57.12;99596.19;4976508;28;46366;-64
2021/11/02 14:35:38;;;;;;;;;1.00;1.00;;;;;16.17;57.25;99604.31;4977853;28;45281;-65
2021/11/02 14:38:11;;;;;;;;;2.00;2.00;;;;;16.07;57.21;99596.91;4976801;28;45192;-65
2021/11/02 14:40:37;;;;;;;;;1.75;1.00;;;;;16.02;57.35;99598.06;4977823;28;45166;-65
2021/11/02 14:43:14;;;;;;;;;0.00;0.00;;;;;15.95;57.60;99592.25;4977564;28;45256;-64
2021/11/02 14:45:41;;;;;;;;;1.75;1.50;;;;;15.84;57.47;99603.44;4977781;28;45550;-65
2021/11/02 14:48:26;;;;;;;;;1.75;1.75;;;;;15.78;57.39;99601.09;4965789;28;45306;-65
2021/11/02 14:50:52;;;;;;;;;2.00;1.00;;;;;15.70;57.44;99598.84;4958443;28;45596;-65
2021/11/02 14:53:32;;;;;;;;;2.25;2.00;;;;;15.63;57.57;99591.31;4957976;28;45318;-65
2021/11/02 14:56:04;;;;;;;;;2.25;0.50;;;;;15.60;57.24;99598.47;4957940;28;45320;-65
2021/11/02 14:58:38;;;;;;;;;1.75;1.00;;;;;15.57;57.35;99603.97;4957947;28;45340;-65
2021/11/02 15:01:04;;;;;;;;;2.75;2.75;;;;;15.53;57.27;99590.94;4957906;28;45396;-65
2021/11/02 15:03:33;;;;;;;;;2.75;1.25;;;;;15.53;57.31;99591.78;4958081;28;45403;-65
2021/11/02 15:06:07;;;;;;;;;1.25;1.25;;;;;15.49;57.39;99584.97;4972921;28;45219;-65
2021/11/02 15:08:36;;;;;;;;;1.25;1.00;;;;;15.51;57.35;99590.16;4964923;28;45170;-65
2021/11/02 15:11:16;;;;;;;;;2.00;2.00;;;;;15.47;57.20;99596.56;4977217;28;45532;-65
2021/11/02 15:13:52;;;;;;;;;1.25;1.00;;;;;15.42;56.94;99594.16;4976104;28;47302;-65
2021/11/02 15:16:18;;;;;;;;;1.50;1.50;;;;;15.39;57.16;99597.81;4977429;28;45428;-65
2021/11/02 15:18:52;;;;;;;;;2.25;2.25;;;;;15.32;57.07;99585.00;4977653;28;45239;-65
2021/11/02 15:21:28;;;;;;;;;8.25;6.75;;;;;15.31;57.39;99591.22;4976007;28;45579;-66
2021/11/02 15:23:54;;;;;;;;;4.50;3.50;;;;;15.25;57.19;99585.31;4977248;28;46347;-65
2021/11/02 15:26:19;;;;;;;;;7.50;7.50;;;;;15.16;57.27;99585.78;5013325;28;45332;-65
2021/11/02 15:28:47;;;;;;;;;2.25;2.25;;;;;15.11;57.07;99579.88;4957900;28;45485;-65
2021/11/02 15:31:14;;;;;;;;;4.50;3.50;;;;;15.09;57.35;99584.38;4957995;28;45463;-65
2021/11/02 15:33:42;;;;;;;;;35.50;31.75;;;;;15.06;57.71;99574.81;4957519;28;45418;-65
2021/11/02 15:36:18;;;;;;;;;1.50;0.50;;;;;15.01;56.91;99576.00;4967913;28;45241;-65
2021/11/02 15:38:59;;;;;;;;;4.25;2.75;;;;;14.92;57.18;99570.25;4962030;28;45227;-65
2021/11/02 15:41:26;;;;;;;;;2.50;1.75;;;;;14.86;57.45;99569.69;4956204;28;45262;-65
2021/11/02 15:43:54;;;;;;;;;42.25;35.50;;;;;14.82;57.40;99573.41;4957340;28;46167;-66
2021/11/02 15:46:23;;;;;;;;;5.00;5.00;;;;;14.76;57.08;99571.94;4957634;28;45183;-65
2021/11/02 15:48:52;;;;;;;;;1.00;1.00;;;;;14.73;57.41;99574.72;4957540;28;45387;-65
2021/11/02 15:51:18;;;;;;;;;4.00;2.00;;;;;14.68;57.36;99572.34;4957502;28;45447;-66
2021/11/02 15:53:43;;;;;;;;;8.50;7.25;;;;;14.65;57.10;99572.47;4957305;28;45219;-65
2021/11/02 15:56:09;;;;;;;;;6.50;2.75;;;;;14.58;57.54;99569.25;4957331;28;45138;-66
2021/11/02 15:58:34;;;;;;;;;4.25;3.25;;;;;14.51;57.32;99567.00;4957466;28;45166;-65
2021/11/02 16:01:00;;;;;;;;;4.25;4.00;;;;;14.47;57.29;99568.94;4957276;28;45216;-65
2021/11/02 16:03:33;;;;;;;;;3.50;3.00;;;;;14.43;57.37;99570.00;4957173;28;45335;-66
2021/11/02 16:05:59;;;;;;;;;2.75;2.25;;;;;14.37;57.59;99570.31;4957373;28;45288;-65
2021/11/02 16:08:24;;;;;;;;;2.25;2.00;;;;;14.26;57.37;99560.25;4957216;28;45494;-65
2021/11/02 16:10:51;;;;;;;;;4.75;3.25;;;;;14.21;57.06;99563.09;4957120;28;45243;-65
2021/11/02 16:13:16;;;;;;;;;2.00;2.00;;;;;14.06;57.66;99550.63;4956856;28;46062;-64
2021/11/02 16:15:44;;;;;;;;;4.50;2.75;;;;;14.08;57.37;99562.00;4955891;28;45269;-65
2021/11/02 16:18:17;;;;;;;;;6.25;2.75;;;;;14.02;57.26;99567.56;4957019;28;45285;-65
2021/11/02 16:20:44;;;;;;;;;4.75;4.00;;;;;13.96;57.12;99564.28;4958076;28;45565;-65
2021/11/02 16:23:14;;;;;;;;;4.50;3.25;;;;;13.91;57.77;99563.66;4960091;28;45284;-65
2021/11/02 16:25:42;;;;;;;;;3.00;2.00;;;;;13.86;57.80;99559.50;5011153;28;45255;-65
2021/11/02 16:28:23;;;;;;;;;3.50;3.00;;;;;13.81;57.24;99560.56;4958878;28;45388;-65
2021/11/02 16:31:00;;;;;;;;;5.00;3.75;;;;;13.76;57.19;99562.56;4959852;28;45528;-64
2021/11/02 16:33:44;;;;;;;;;4.50;3.00;;;;;13.70;57.22;99551.41;4959955;28;45711;-65
2021/11/02 16:36:31;;;;;;;;;4.75;3.50;;;;;13.63;57.32;99550.84;4967604;28;45505;-65
2021/11/02 16:39:02;;;;;;;;;3.50;3.50;;;;;13.62;57.81;99559.69;4979456;28;45510;-65
2021/11/02 16:41:27;;;;;;;;;4.00;4.00;;;;;13.57;57.55;99545.84;4979361;28;46442;-65
2021/11/02 16:44:01;;;;;;;;;2.25;2.25;;;;;13.54;57.93;99559.22;4979139;28;45319;-65
2021/11/02 16:46:32;;;;;;;;;3.25;3.00;;;;;13.48;57.80;99549.75;4979412;28;45435;-65
2021/11/02 16:49:03;;;;;;;;;5.00;5.00;;;;;13.44;57.53;99546.41;4960142;28;45268;-65
2021/11/02 16:51:52;;;;;;;;;6.50;5.00;;;;;13.41;57.75;99543.03;4968463;28;45554;-65
2021/11/02 16:54:20;;;;;;;;;8.25;4.00;;;;;13.35;57.69;99541.53;4981143;28;46461;-65
2021/11/02 16:57:04;;;;;;;;;7.75;6.00;;;;;13.35;57.91;99540.69;4971326;28;45309;-65